createdAt,value
2018-04-08T00:00:00.254Z,1024.45014581
2018-04-08T00:00:12.435Z,1024.41628192
2018-04-08T00:00:24.618Z,1024.41628192
2018-04-08T00:00:36.818Z,1024.41628192
2018-04-08T00:00:48.967Z,1024.41628192
2018-04-08T00:01:01.115Z,1024.45014581
2018-04-08T00:01:13.281Z,1024.45014581
2018-04-08T00:01:25.422Z,1024.45014581
2018-04-08T00:01:37.769Z,1024.45014581
2018-04-08T00:01:49.923Z,1024.45014581
2018-04-08T00:02:02.120Z,1024.58560133
2018-04-08T00:02:14.395Z,1024.58560133
2018-04-08T00:02:26.531Z,1024.58560133
2018-04-08T00:02:38.660Z,1024.58560133
2018-04-08T00:02:50.785Z,1024.58560133
2018-04-08T00:03:02.960Z,1024.38241804
2018-04-08T00:03:15.096Z,1024.38241804
2018-04-08T00:03:27.241Z,1024.38241804
2018-04-08T00:03:39.386Z,1024.38241804
2018-04-08T00:03:51.565Z,1024.38241804
2018-04-08T00:04:03.731Z,1024.38241804
2018-04-08T00:04:15.869Z,1024.38241804
2018-04-08T00:04:28.024Z,1024.38241804
2018-04-08T00:04:40.167Z,1024.38241804
2018-04-08T00:04:52.323Z,1024.38241804
2018-04-08T00:05:04.485Z,1024.48400969
2018-04-08T00:05:16.678Z,1024.48400969
2018-04-08T00:05:28.832Z,1024.48400969
2018-04-08T00:05:40.956Z,1024.48400969
2018-04-08T00:05:53.115Z,1024.48400969
2018-04-08T00:06:05.275Z,1024.34855416
2018-04-08T00:06:17.434Z,1024.34855416
2018-04-08T00:06:29.643Z,1024.34855416
2018-04-08T00:06:41.798Z,1024.34855416
2018-04-08T00:06:53.959Z,1024.34855416
2018-04-08T00:07:06.109Z,1024.41628192
2018-04-08T00:07:18.281Z,1024.41628192
2018-04-08T00:07:30.426Z,1024.41628192
2018-04-08T00:07:42.577Z,1024.41628192
2018-04-08T00:07:54.721Z,1024.41628192
2018-04-08T00:08:06.873Z,1024.24696252
2018-04-08T00:08:19.054Z,1024.24696252
2018-04-08T00:08:31.249Z,1024.24696252
2018-04-08T00:08:43.385Z,1024.24696252
2018-04-08T00:08:55.546Z,1024.24696252
2018-04-08T00:09:07.712Z,1024.38241804
2018-04-08T00:09:19.885Z,1024.38241804
2018-04-08T00:09:32.043Z,1024.38241804
2018-04-08T00:09:44.199Z,1024.38241804
2018-04-08T00:09:56.371Z,1024.38241804
2018-04-08T00:10:08.563Z,1024.2808264
2018-04-08T00:10:20.724Z,1024.2808264
2018-04-08T00:10:32.862Z,1024.2808264
2018-04-08T00:10:45.014Z,1024.2808264
2018-04-08T00:10:57.156Z,1024.2808264
2018-04-08T00:11:09.510Z,1024.31469028
2018-04-08T00:11:21.708Z,1024.31469028
2018-04-08T00:11:33.828Z,1024.31469028
2018-04-08T00:11:45.973Z,1024.31469028
2018-04-08T00:11:58.123Z,1024.31469028
2018-04-08T00:12:10.267Z,1024.31469028
2018-04-08T00:12:22.446Z,1024.31469028
2018-04-08T00:12:34.596Z,1024.31469028
2018-04-08T00:12:47.080Z,1024.31469028
2018-04-08T00:12:59.220Z,1024.31469028
2018-04-08T00:13:11.539Z,1024.31469028
2018-04-08T00:13:23.690Z,1024.31469028
2018-04-08T00:13:35.827Z,1024.31469028
2018-04-08T00:13:48.276Z,1024.31469028
2018-04-08T00:14:00.502Z,1024.34855416
2018-04-08T00:14:12.661Z,1024.34855416
2018-04-08T00:14:24.809Z,1024.34855416
2018-04-08T00:14:36.967Z,1024.34855416
2018-04-08T00:14:49.124Z,1024.34855416
2018-04-08T00:15:01.277Z,1024.34855416
2018-04-08T00:15:13.430Z,1024.34855416
2018-04-08T00:15:25.568Z,1024.34855416
2018-04-08T00:15:37.715Z,1024.34855416
2018-04-08T00:15:49.844Z,1024.34855416
2018-04-08T00:16:01.991Z,1024.31469028
2018-04-08T00:16:14.122Z,1024.31469028
2018-04-08T00:16:26.254Z,1024.31469028
2018-04-08T00:16:38.393Z,1024.31469028
2018-04-08T00:16:50.514Z,1024.31469028
2018-04-08T00:17:02.712Z,1024.34855416
2018-04-08T00:17:14.856Z,1024.34855416
2018-04-08T00:17:26.989Z,1024.34855416
2018-04-08T00:17:39.131Z,1024.34855416
2018-04-08T00:17:51.479Z,1024.34855416
2018-04-08T00:18:03.720Z,1024.24696252
2018-04-08T00:18:15.886Z,1024.24696252
2018-04-08T00:18:28.027Z,1024.24696252
2018-04-08T00:18:40.171Z,1024.24696252
2018-04-08T00:18:52.310Z,1024.24696252
2018-04-08T00:19:04.461Z,1024.2808264
2018-04-08T00:19:16.606Z,1024.2808264
2018-04-08T00:19:28.775Z,1024.2808264
2018-04-08T00:19:40.898Z,1024.2808264
2018-04-08T00:19:53.058Z,1024.2808264
2018-04-08T00:20:05.208Z,1024.24696252
2018-04-08T00:20:17.331Z,1024.24696252
2018-04-08T00:20:29.492Z,1024.24696252
2018-04-08T00:20:41.616Z,1024.24696252
2018-04-08T00:20:53.744Z,1024.24696252
2018-04-08T00:21:05.916Z,1024.2808264
2018-04-08T00:21:18.071Z,1024.2808264
2018-04-08T00:21:30.231Z,1024.2808264
2018-04-08T00:21:42.415Z,1024.2808264
2018-04-08T00:21:54.564Z,1024.2808264
2018-04-08T00:22:06.726Z,1024.31469028
2018-04-08T00:22:18.904Z,1024.31469028
2018-04-08T00:22:31.039Z,1024.31469028
2018-04-08T00:22:43.208Z,1024.31469028
2018-04-08T00:22:55.701Z,1024.31469028
2018-04-08T00:23:07.858Z,1024.2808264
2018-04-08T00:23:20.406Z,1024.2808264
2018-04-08T00:23:32.541Z,1024.2808264
2018-04-08T00:23:44.706Z,1024.2808264
2018-04-08T00:23:56.831Z,1024.2808264
2018-04-08T00:24:09.032Z,1024.34855416
2018-04-08T00:24:21.207Z,1024.34855416
2018-04-08T00:24:33.358Z,1024.34855416
2018-04-08T00:24:45.513Z,1024.34855416
2018-04-08T00:24:57.643Z,1024.34855416
2018-04-08T00:25:09.769Z,1024.34855416
2018-04-08T00:25:21.902Z,1024.34855416
2018-04-08T00:25:34.047Z,1024.34855416
2018-04-08T00:25:46.190Z,1024.34855416
2018-04-08T00:25:58.356Z,1024.34855416
2018-04-08T00:26:10.508Z,1024.31469028
2018-04-08T00:26:22.651Z,1024.31469028
2018-04-08T00:26:34.802Z,1024.31469028
2018-04-08T00:26:46.948Z,1024.31469028
2018-04-08T00:26:59.110Z,1024.31469028
2018-04-08T00:27:11.238Z,1024.14537087
2018-04-08T00:27:23.390Z,1024.14537087
2018-04-08T00:27:35.596Z,1024.14537087
2018-04-08T00:27:47.756Z,1024.14537087
2018-04-08T00:27:59.950Z,1024.14537087
2018-04-08T00:28:12.122Z,1024.14537087
2018-04-08T00:28:24.322Z,1024.14537087
2018-04-08T00:28:36.478Z,1024.14537087
2018-04-08T00:28:48.638Z,1024.14537087
2018-04-08T00:29:00.798Z,1024.31469028
2018-04-08T00:29:12.965Z,1024.31469028
2018-04-08T00:29:25.135Z,1024.31469028
2018-04-08T00:29:37.272Z,1024.31469028
2018-04-08T00:29:49.420Z,1024.31469028
2018-04-08T00:30:01.586Z,1024.17923475
2018-04-08T00:30:13.734Z,1024.17923475
2018-04-08T00:30:25.865Z,1024.17923475
2018-04-08T00:30:38.022Z,1024.17923475
2018-04-08T00:30:50.175Z,1024.17923475
2018-04-08T00:31:02.329Z,1024.21309863
2018-04-08T00:31:14.512Z,1024.21309863
2018-04-08T00:31:26.660Z,1024.21309863
2018-04-08T00:31:38.802Z,1024.21309863
2018-04-08T00:31:50.962Z,1024.21309863
2018-04-08T00:32:03.105Z,1024.24696252
2018-04-08T00:32:15.318Z,1024.24696252
2018-04-08T00:32:27.472Z,1024.24696252
2018-04-08T00:32:39.605Z,1024.24696252
2018-04-08T00:32:51.753Z,1024.24696252
2018-04-08T00:33:03.896Z,1024.2808264
2018-04-08T00:33:16.124Z,1024.2808264
2018-04-08T00:33:28.275Z,1024.2808264
2018-04-08T00:33:40.431Z,1024.2808264
2018-04-08T00:33:52.575Z,1024.2808264
2018-04-08T00:34:04.871Z,1024.14537087
2018-04-08T00:34:17.046Z,1024.14537087
2018-04-08T00:34:29.194Z,1024.14537087
2018-04-08T00:34:41.344Z,1024.14537087
2018-04-08T00:34:53.505Z,1024.14537087
2018-04-08T00:35:05.683Z,1024.24696252
2018-04-08T00:35:17.832Z,1024.24696252
2018-04-08T00:35:29.979Z,1024.24696252
2018-04-08T00:35:42.161Z,1024.24696252
2018-04-08T00:35:54.293Z,1024.24696252
2018-04-08T00:36:06.452Z,1024.17923475
2018-04-08T00:36:18.613Z,1024.17923475
2018-04-08T00:36:30.788Z,1024.17923475
2018-04-08T00:36:42.923Z,1024.17923475
2018-04-08T00:36:55.065Z,1024.17923475
2018-04-08T00:37:07.215Z,1024.24696252
2018-04-08T00:37:19.349Z,1024.24696252
2018-04-08T00:37:31.511Z,1024.24696252
2018-04-08T00:37:43.674Z,1024.24696252
2018-04-08T00:37:55.838Z,1024.24696252
2018-04-08T00:38:07.997Z,1024.24696252
2018-04-08T00:38:20.163Z,1024.24696252
2018-04-08T00:38:32.341Z,1024.24696252
2018-04-08T00:38:44.485Z,1024.24696252
2018-04-08T00:38:56.645Z,1024.24696252
2018-04-08T00:39:08.825Z,1024.2808264
2018-04-08T00:39:20.986Z,1024.2808264
2018-04-08T00:39:33.143Z,1024.2808264
2018-04-08T00:39:45.315Z,1024.2808264
2018-04-08T00:39:57.461Z,1024.2808264
2018-04-08T00:40:09.677Z,1024.14537087
2018-04-08T00:40:21.842Z,1024.14537087
2018-04-08T00:40:33.989Z,1024.14537087
2018-04-08T00:40:46.157Z,1024.14537087
2018-04-08T00:40:58.303Z,1024.14537087
2018-04-08T00:41:10.454Z,1024.14537087
2018-04-08T00:41:22.592Z,1024.14537087
2018-04-08T00:41:34.723Z,1024.14537087
2018-04-08T00:41:46.869Z,1024.14537087
2018-04-08T00:41:59.016Z,1024.14537087
2018-04-08T00:42:11.263Z,1024.21309863
2018-04-08T00:42:23.430Z,1024.21309863
2018-04-08T00:42:35.611Z,1024.21309863
2018-04-08T00:42:47.770Z,1024.21309863
2018-04-08T00:42:59.928Z,1024.17923475
2018-04-08T00:43:12.084Z,1024.17923475
2018-04-08T00:43:24.256Z,1024.17923475
2018-04-08T00:43:36.406Z,1024.17923475
2018-04-08T00:43:48.530Z,1024.17923475
2018-04-08T00:44:00.687Z,1024.14537087
2018-04-08T00:44:12.842Z,1024.14537087
2018-04-08T00:44:25.001Z,1024.14537087
2018-04-08T00:44:37.157Z,1024.14537087
2018-04-08T00:44:49.340Z,1024.14537087
2018-04-08T00:45:01.499Z,1024.11150699
2018-04-08T00:45:13.630Z,1024.11150699
2018-04-08T00:45:25.774Z,1024.11150699
2018-04-08T00:45:37.955Z,1024.11150699
2018-04-08T00:45:50.100Z,1024.11150699
2018-04-08T00:46:02.252Z,1024.2808264
2018-04-08T00:46:14.548Z,1024.2808264
2018-04-08T00:46:26.693Z,1024.2808264
2018-04-08T00:46:38.854Z,1024.2808264
2018-04-08T00:46:51.009Z,1024.2808264
2018-04-08T00:47:03.171Z,1024.2808264
2018-04-08T00:47:15.312Z,1024.2808264
2018-04-08T00:47:27.479Z,1024.2808264
2018-04-08T00:47:39.618Z,1024.2808264
2018-04-08T00:47:51.762Z,1024.2808264
2018-04-08T00:48:04.015Z,1024.11150699
2018-04-08T00:48:16.170Z,1024.11150699
2018-04-08T00:48:28.322Z,1024.11150699
2018-04-08T00:48:40.487Z,1024.11150699
2018-04-08T00:48:52.639Z,1024.11150699
2018-04-08T00:49:04.803Z,1024.11150699
2018-04-08T00:49:17.092Z,1024.11150699
2018-04-08T00:49:29.437Z,1024.11150699
2018-04-08T00:49:41.593Z,1024.11150699
2018-04-08T00:49:53.777Z,1024.11150699
2018-04-08T00:50:05.920Z,1024.07764311
2018-04-08T00:50:18.065Z,1024.07764311
2018-04-08T00:50:30.217Z,1024.07764311
2018-04-08T00:50:42.373Z,1024.07764311
2018-04-08T00:50:54.502Z,1024.07764311
2018-04-08T00:51:06.665Z,1024.11150699
2018-04-08T00:51:18.901Z,1024.11150699
2018-04-08T00:51:31.229Z,1024.11150699
2018-04-08T00:51:43.375Z,1024.11150699
2018-04-08T00:51:55.537Z,1024.11150699
2018-04-08T00:52:07.686Z,1024.07764311
2018-04-08T00:52:19.822Z,1024.07764311
2018-04-08T00:52:31.962Z,1024.07764311
2018-04-08T00:52:44.114Z,1024.07764311
2018-04-08T00:52:56.244Z,1024.07764311
2018-04-08T00:53:08.408Z,1024.04377923
2018-04-08T00:53:20.531Z,1024.04377923
2018-04-08T00:53:32.664Z,1024.04377923
2018-04-08T00:53:44.792Z,1024.04377923
2018-04-08T00:53:56.924Z,1024.04377923
2018-04-08T00:54:09.069Z,1024.04377923
2018-04-08T00:54:21.201Z,1024.04377923
2018-04-08T00:54:33.321Z,1024.04377923
2018-04-08T00:54:45.462Z,1024.04377923
2018-04-08T00:54:57.596Z,1024.04377923
2018-04-08T00:55:09.757Z,1024.04377923
2018-04-08T00:55:21.898Z,1024.04377923
2018-04-08T00:55:34.022Z,1024.04377923
2018-04-08T00:55:46.188Z,1024.04377923
2018-04-08T00:55:58.331Z,1024.04377923
2018-04-08T00:56:10.480Z,1024.00991534
2018-04-08T00:56:22.626Z,1024.00991534
2018-04-08T00:56:34.812Z,1024.00991534
2018-04-08T00:56:46.949Z,1024.00991534
2018-04-08T00:56:59.103Z,1024.00991534
2018-04-08T00:57:11.272Z,1023.97605146
2018-04-08T00:57:23.426Z,1023.97605146
2018-04-08T00:57:35.565Z,1023.97605146
2018-04-08T00:57:47.715Z,1023.97605146
2018-04-08T00:57:59.871Z,1023.97605146
2018-04-08T00:58:12.012Z,1023.97605146
2018-04-08T00:58:24.168Z,1023.97605146
2018-04-08T00:58:36.332Z,1023.97605146
2018-04-08T00:58:48.470Z,1023.97605146
2018-04-08T00:59:00.628Z,1023.97605146
2018-04-08T00:59:12.780Z,1023.97605146
2018-04-08T00:59:24.938Z,1023.97605146
2018-04-08T00:59:37.096Z,1023.97605146
2018-04-08T00:59:49.226Z,1023.97605146
2018-04-08T01:00:01.385Z,1023.97605146
2018-04-08T01:00:13.559Z,1023.9083237
2018-04-08T01:00:25.718Z,1023.9083237
2018-04-08T01:00:37.895Z,1023.9083237
2018-04-08T01:00:50.069Z,1023.9083237
2018-04-08T01:01:02.240Z,1024.00991534
2018-04-08T01:01:14.424Z,1024.00991534
2018-04-08T01:01:26.636Z,1024.00991534
2018-04-08T01:01:38.796Z,1024.00991534
2018-04-08T01:01:50.966Z,1024.00991534
2018-04-08T01:02:03.134Z,1023.94218758
2018-04-08T01:02:15.288Z,1023.94218758
2018-04-08T01:02:27.439Z,1023.94218758
2018-04-08T01:02:39.614Z,1023.94218758
2018-04-08T01:02:51.762Z,1023.94218758
2018-04-08T01:03:03.925Z,1023.97605146
2018-04-08T01:03:16.138Z,1023.97605146
2018-04-08T01:03:28.304Z,1023.97605146
2018-04-08T01:03:40.459Z,1023.97605146
2018-04-08T01:03:52.619Z,1023.97605146
2018-04-08T01:04:04.772Z,1023.9083237
2018-04-08T01:04:16.926Z,1023.9083237
2018-04-08T01:04:29.091Z,1023.9083237
2018-04-08T01:04:41.256Z,1023.9083237
2018-04-08T01:04:53.551Z,1023.9083237
2018-04-08T01:05:05.714Z,1023.97605146
2018-04-08T01:05:17.882Z,1023.97605146
2018-04-08T01:05:30.027Z,1023.97605146
2018-04-08T01:05:42.154Z,1023.97605146
2018-04-08T01:05:54.272Z,1023.97605146
2018-04-08T01:06:06.433Z,1023.94218758
2018-04-08T01:06:18.618Z,1023.94218758
2018-04-08T01:06:30.786Z,1023.94218758
2018-04-08T01:06:42.961Z,1023.94218758
2018-04-08T01:06:55.106Z,1023.94218758
2018-04-08T01:07:07.281Z,1023.94218758
2018-04-08T01:07:19.437Z,1023.94218758
2018-04-08T01:07:31.583Z,1023.94218758
2018-04-08T01:07:43.725Z,1023.94218758
2018-04-08T01:07:55.885Z,1023.94218758
2018-04-08T01:08:08.041Z,1024.00991534
2018-04-08T01:08:20.180Z,1024.00991534
2018-04-08T01:08:32.335Z,1024.00991534
2018-04-08T01:08:44.478Z,1024.00991534
2018-04-08T01:08:56.612Z,1024.00991534
2018-04-08T01:09:08.747Z,1023.94218758
2018-04-08T01:09:20.917Z,1023.94218758
2018-04-08T01:09:33.060Z,1023.94218758
2018-04-08T01:09:45.211Z,1023.94218758
2018-04-08T01:09:57.355Z,1023.94218758
2018-04-08T01:10:09.512Z,1023.97605146
2018-04-08T01:10:21.660Z,1023.97605146
2018-04-08T01:10:33.794Z,1023.97605146
2018-04-08T01:10:45.956Z,1023.97605146
2018-04-08T01:10:58.100Z,1023.97605146
2018-04-08T01:11:10.248Z,1023.97605146
2018-04-08T01:11:22.402Z,1023.97605146
2018-04-08T01:11:34.719Z,1023.97605146
2018-04-08T01:11:46.885Z,1023.97605146
2018-04-08T01:11:59.025Z,1023.97605146
2018-04-08T01:12:11.194Z,1024.04377923
2018-04-08T01:12:23.343Z,1024.04377923
2018-04-08T01:12:35.496Z,1024.04377923
2018-04-08T01:12:47.913Z,1024.04377923
2018-04-08T01:13:00.074Z,1024.07764311
2018-04-08T01:13:12.629Z,1024.07764311
2018-04-08T01:13:24.754Z,1024.07764311
2018-04-08T01:13:36.905Z,1024.07764311
2018-04-08T01:13:49.359Z,1024.07764311
2018-04-08T01:14:01.521Z,1023.97605146
2018-04-08T01:14:13.672Z,1023.97605146
2018-04-08T01:14:25.805Z,1023.97605146
2018-04-08T01:14:37.964Z,1023.97605146
2018-04-08T01:14:50.142Z,1023.97605146
2018-04-08T01:15:02.284Z,1024.00991534
2018-04-08T01:15:14.443Z,1024.00991534
2018-04-08T01:15:26.602Z,1024.00991534
2018-04-08T01:15:38.774Z,1024.00991534
2018-04-08T01:15:50.932Z,1024.00991534
2018-04-08T01:16:03.077Z,1023.9083237
2018-04-08T01:16:15.222Z,1023.9083237
2018-04-08T01:16:27.381Z,1023.9083237
2018-04-08T01:16:39.533Z,1023.9083237
2018-04-08T01:16:51.714Z,1023.9083237
2018-04-08T01:17:03.864Z,1023.94218758
2018-04-08T01:17:16.075Z,1023.94218758
2018-04-08T01:17:28.255Z,1023.94218758
2018-04-08T01:17:40.418Z,1023.94218758
2018-04-08T01:17:52.692Z,1023.94218758
2018-04-08T01:18:04.854Z,1023.94218758
2018-04-08T01:18:17.045Z,1023.94218758
2018-04-08T01:18:29.194Z,1023.94218758
2018-04-08T01:18:41.367Z,1023.94218758
2018-04-08T01:18:53.515Z,1023.94218758
2018-04-08T01:19:05.670Z,1023.94218758
2018-04-08T01:19:17.812Z,1023.94218758
2018-04-08T01:19:29.959Z,1023.94218758
2018-04-08T01:19:42.143Z,1023.94218758
2018-04-08T01:19:54.309Z,1023.94218758
2018-04-08T01:20:06.478Z,1023.94218758
2018-04-08T01:20:18.620Z,1023.94218758
2018-04-08T01:20:30.750Z,1023.94218758
2018-04-08T01:20:42.888Z,1023.94218758
2018-04-08T01:20:55.099Z,1023.94218758
2018-04-08T01:21:07.231Z,1023.9083237
2018-04-08T01:21:19.363Z,1023.9083237
2018-04-08T01:21:31.511Z,1023.9083237
2018-04-08T01:21:43.655Z,1023.9083237
2018-04-08T01:21:55.819Z,1023.9083237
2018-04-08T01:22:07.992Z,1023.94218758
2018-04-08T01:22:20.132Z,1023.94218758
2018-04-08T01:22:32.271Z,1023.94218758
2018-04-08T01:22:44.436Z,1023.94218758
2018-04-08T01:22:56.617Z,1023.94218758
2018-04-08T01:23:08.832Z,1023.94218758
2018-04-08T01:23:20.995Z,1023.94218758
2018-04-08T01:23:33.151Z,1023.94218758
2018-04-08T01:23:45.317Z,1023.94218758
2018-04-08T01:23:57.464Z,1023.94218758
2018-04-08T01:24:09.626Z,1023.9083237
2018-04-08T01:24:21.806Z,1023.9083237
2018-04-08T01:24:33.959Z,1023.9083237
2018-04-08T01:24:46.129Z,1023.9083237
2018-04-08T01:24:58.286Z,1023.9083237
2018-04-08T01:25:10.462Z,1023.97605146
2018-04-08T01:25:22.594Z,1023.97605146
2018-04-08T01:25:34.718Z,1023.97605146
2018-04-08T01:25:46.909Z,1023.97605146
2018-04-08T01:25:59.076Z,1023.97605146
2018-04-08T01:26:11.219Z,1023.84059594
2018-04-08T01:26:23.368Z,1023.84059594
2018-04-08T01:26:35.528Z,1023.84059594
2018-04-08T01:26:47.668Z,1023.84059594
2018-04-08T01:26:59.815Z,1023.87445982
2018-04-08T01:27:11.991Z,1023.87445982
2018-04-08T01:27:24.169Z,1023.87445982
2018-04-08T01:27:36.313Z,1023.87445982
2018-04-08T01:27:48.474Z,1023.87445982
2018-04-08T01:28:00.645Z,1023.9083237
2018-04-08T01:28:12.912Z,1023.9083237
2018-04-08T01:28:25.054Z,1023.9083237
2018-04-08T01:28:37.184Z,1023.9083237
2018-04-08T01:28:49.320Z,1023.9083237
2018-04-08T01:29:01.458Z,1023.87445982
2018-04-08T01:29:13.623Z,1023.87445982
2018-04-08T01:29:25.758Z,1023.87445982
2018-04-08T01:29:37.883Z,1023.87445982
2018-04-08T01:29:50.030Z,1023.87445982
2018-04-08T01:30:02.193Z,1023.87445982
2018-04-08T01:30:14.334Z,1023.87445982
2018-04-08T01:30:26.482Z,1023.87445982
2018-04-08T01:30:38.610Z,1023.87445982
2018-04-08T01:30:50.759Z,1023.87445982
2018-04-08T01:31:02.885Z,1023.84059594
2018-04-08T01:31:15.037Z,1023.84059594
2018-04-08T01:31:27.192Z,1023.84059594
2018-04-08T01:31:39.364Z,1023.84059594
2018-04-08T01:31:51.544Z,1023.84059594
2018-04-08T01:32:03.689Z,1023.87445982
2018-04-08T01:32:15.828Z,1023.87445982
2018-04-08T01:32:27.994Z,1023.87445982
2018-04-08T01:32:40.125Z,1023.87445982
2018-04-08T01:32:52.374Z,1023.87445982
2018-04-08T01:33:04.599Z,1023.84059594
2018-04-08T01:33:16.755Z,1023.84059594
2018-04-08T01:33:28.905Z,1023.84059594
2018-04-08T01:33:41.044Z,1023.84059594
2018-04-08T01:33:53.173Z,1023.84059594
2018-04-08T01:34:05.320Z,1023.9083237
2018-04-08T01:34:17.490Z,1023.9083237
2018-04-08T01:34:29.652Z,1023.9083237
2018-04-08T01:34:41.820Z,1023.9083237
2018-04-08T01:34:53.985Z,1023.9083237
2018-04-08T01:35:06.134Z,1023.84059594
2018-04-08T01:35:18.286Z,1023.84059594
2018-04-08T01:35:30.449Z,1023.84059594
2018-04-08T01:35:42.604Z,1023.84059594
2018-04-08T01:35:54.803Z,1023.84059594
2018-04-08T01:36:06.974Z,1023.94218758
2018-04-08T01:36:19.140Z,1023.94218758
2018-04-08T01:36:31.296Z,1023.94218758
2018-04-08T01:36:43.445Z,1023.94218758
2018-04-08T01:36:55.584Z,1023.94218758
2018-04-08T01:37:07.723Z,1023.87445982
2018-04-08T01:37:19.882Z,1023.87445982
2018-04-08T01:37:32.056Z,1023.87445982
2018-04-08T01:37:44.201Z,1023.87445982
2018-04-08T01:37:56.424Z,1023.87445982
2018-04-08T01:38:08.576Z,1023.80673205
2018-04-08T01:38:20.725Z,1023.80673205
2018-04-08T01:38:32.873Z,1023.80673205
2018-04-08T01:38:45.032Z,1023.80673205
2018-04-08T01:38:57.201Z,1023.80673205
2018-04-08T01:39:09.335Z,1023.73900429
2018-04-08T01:39:21.495Z,1023.73900429
2018-04-08T01:39:33.668Z,1023.73900429
2018-04-08T01:39:45.803Z,1023.73900429
2018-04-08T01:39:57.944Z,1023.73900429
2018-04-08T01:40:10.096Z,1023.80673205
2018-04-08T01:40:22.270Z,1023.80673205
2018-04-08T01:40:34.414Z,1023.80673205
2018-04-08T01:40:46.580Z,1023.80673205
2018-04-08T01:40:58.725Z,1023.80673205
2018-04-08T01:41:10.885Z,1023.80673205
2018-04-08T01:41:23.025Z,1023.80673205
2018-04-08T01:41:35.175Z,1023.80673205
2018-04-08T01:41:47.326Z,1023.80673205
2018-04-08T01:41:59.475Z,1023.80673205
2018-04-08T01:42:11.610Z,1023.80673205
2018-04-08T01:42:23.756Z,1023.80673205
2018-04-08T01:42:35.867Z,1023.80673205
2018-04-08T01:42:48.004Z,1023.80673205
2018-04-08T01:43:00.229Z,1023.80673205
2018-04-08T01:43:12.378Z,1023.80673205
2018-04-08T01:43:24.537Z,1023.80673205
2018-04-08T01:43:36.677Z,1023.80673205
2018-04-08T01:43:48.841Z,1023.80673205
2018-04-08T01:44:00.975Z,1023.84059594
2018-04-08T01:44:13.131Z,1023.84059594
2018-04-08T01:44:25.258Z,1023.84059594
2018-04-08T01:44:37.414Z,1023.84059594
2018-04-08T01:44:49.549Z,1023.84059594
2018-04-08T01:45:01.687Z,1023.80673205
2018-04-08T01:45:13.820Z,1023.80673205
2018-04-08T01:45:25.990Z,1023.80673205
2018-04-08T01:45:38.111Z,1023.80673205
2018-04-08T01:45:50.274Z,1023.80673205
2018-04-08T01:46:02.421Z,1023.73900429
2018-04-08T01:46:14.865Z,1023.73900429
2018-04-08T01:46:27.003Z,1023.73900429
2018-04-08T01:46:39.128Z,1023.73900429
2018-04-08T01:46:51.296Z,1023.73900429
2018-04-08T01:47:03.440Z,1023.77286817
2018-04-08T01:47:15.566Z,1023.77286817
2018-04-08T01:47:27.770Z,1023.77286817
2018-04-08T01:47:39.943Z,1023.77286817
2018-04-08T01:47:52.100Z,1023.77286817
2018-04-08T01:48:04.385Z,1023.80673205
2018-04-08T01:48:16.520Z,1023.80673205
2018-04-08T01:48:28.668Z,1023.80673205
2018-04-08T01:48:40.813Z,1023.80673205
2018-04-08T01:48:52.963Z,1023.80673205
2018-04-08T01:49:05.140Z,1023.77286817
2018-04-08T01:49:17.301Z,1023.77286817
2018-04-08T01:49:29.632Z,1023.77286817
2018-04-08T01:49:41.792Z,1023.77286817
2018-04-08T01:49:53.940Z,1023.77286817
2018-04-08T01:50:06.093Z,1023.87445982
2018-04-08T01:50:18.257Z,1023.87445982
2018-04-08T01:50:30.401Z,1023.87445982
2018-04-08T01:50:42.566Z,1023.87445982
2018-04-08T01:50:54.702Z,1023.87445982
2018-04-08T01:51:06.856Z,1023.73900429
2018-04-08T01:51:19.021Z,1023.73900429
2018-04-08T01:51:31.410Z,1023.73900429
2018-04-08T01:51:43.691Z,1023.73900429
2018-04-08T01:51:55.833Z,1023.73900429
2018-04-08T01:52:07.999Z,1023.80673205
2018-04-08T01:52:20.161Z,1023.80673205
2018-04-08T01:52:32.305Z,1023.80673205
2018-04-08T01:52:44.454Z,1023.80673205
2018-04-08T01:52:56.604Z,1023.80673205
2018-04-08T01:53:08.742Z,1023.70514041
2018-04-08T01:53:20.895Z,1023.70514041
2018-04-08T01:53:33.089Z,1023.70514041
2018-04-08T01:53:45.243Z,1023.70514041
2018-04-08T01:53:57.398Z,1023.70514041
2018-04-08T01:54:09.573Z,1023.73900429
2018-04-08T01:54:21.760Z,1023.73900429
2018-04-08T01:54:33.934Z,1023.73900429
2018-04-08T01:54:46.135Z,1023.73900429
2018-04-08T01:54:58.299Z,1023.73900429
2018-04-08T01:55:10.431Z,1023.77286817
2018-04-08T01:55:22.577Z,1023.77286817
2018-04-08T01:55:34.739Z,1023.77286817
2018-04-08T01:55:46.882Z,1023.77286817
2018-04-08T01:55:59.033Z,1023.77286817
2018-04-08T01:56:11.211Z,1023.73900429
2018-04-08T01:56:23.358Z,1023.73900429
2018-04-08T01:56:35.490Z,1023.73900429
2018-04-08T01:56:47.638Z,1023.73900429
2018-04-08T01:56:59.859Z,1023.63741265
2018-04-08T01:57:11.977Z,1023.63741265
2018-04-08T01:57:24.128Z,1023.63741265
2018-04-08T01:57:36.283Z,1023.63741265
2018-04-08T01:57:48.416Z,1023.63741265
2018-04-08T01:58:00.591Z,1023.67127653
2018-04-08T01:58:12.760Z,1023.67127653
2018-04-08T01:58:24.921Z,1023.67127653
2018-04-08T01:58:37.083Z,1023.67127653
2018-04-08T01:58:49.290Z,1023.67127653
2018-04-08T01:59:01.415Z,1023.70514041
2018-04-08T01:59:13.571Z,1023.70514041
2018-04-08T01:59:25.795Z,1023.70514041
2018-04-08T01:59:37.948Z,1023.70514041
2018-04-08T01:59:50.103Z,1023.70514041
2018-04-08T02:00:02.269Z,1023.67127653
2018-04-08T02:00:14.428Z,1023.67127653
2018-04-08T02:00:26.598Z,1023.67127653
2018-04-08T02:00:38.766Z,1023.67127653
2018-04-08T02:00:50.942Z,1023.67127653
2018-04-08T02:01:03.112Z,1023.73900429
2018-04-08T02:01:15.261Z,1023.73900429
2018-04-08T02:01:27.479Z,1023.73900429
2018-04-08T02:01:39.646Z,1023.73900429
2018-04-08T02:01:51.836Z,1023.73900429
2018-04-08T02:02:03.984Z,1023.63741265
2018-04-08T02:02:16.149Z,1023.63741265
2018-04-08T02:02:28.346Z,1023.63741265
2018-04-08T02:02:40.589Z,1023.63741265
2018-04-08T02:02:52.756Z,1023.63741265
2018-04-08T02:03:04.915Z,1023.70514041
2018-04-08T02:03:17.079Z,1023.70514041
2018-04-08T02:03:29.243Z,1023.70514041
2018-04-08T02:03:41.404Z,1023.70514041
2018-04-08T02:03:53.590Z,1023.70514041
2018-04-08T02:04:05.733Z,1023.63741265
2018-04-08T02:04:17.873Z,1023.63741265
2018-04-08T02:04:30.034Z,1023.63741265
2018-04-08T02:04:42.203Z,1023.63741265